sensor_id;sensor_type;location;lat;lon;timestamp;P1;durP1;ratioP1;P2;durP2;ratioP2
18286;SDS011;9269;50.838;12.094;2022-09-27T00:02:18;1.80;;;1.70;;
18286;SDS011;9269;50.838;12.094;2022-09-27T00:04:46;1.63;;;1.53;;
18286;SDS011;9269;50.838;12.094;2022-09-27T00:07:17;3.23;;;1.90;;
18286;SDS011;9269;50.838;12.094;2022-09-27T00:09:45;1.93;;;1.33;;
18286;SDS011;9269;50.838;12.094;2022-09-27T00:12:13;1.73;;;1.53;;
18286;SDS011;9269;50.838;12.094;2022-09-27T00:14:41;2.17;;;1.30;;
18286;SDS011;9269;50.838;12.094;2022-09-27T00:17:11;2.30;;;1.60;;
18286;SDS011;9269;50.838;12.094;2022-09-27T00:19:39;1.63;;;1.53;;
18286;SDS011;9269;50.838;12.094;2022-09-27T00:22:07;1.77;;;1.67;;
18286;SDS011;9269;50.838;12.094;2022-09-27T00:24:37;2.03;;;1.50;;
18286;SDS011;9269;50.838;12.094;2022-09-27T00:27:05;2.00;;;1.53;;
18286;SDS011;9269;50.838;12.094;2022-09-27T00:29:34;2.53;;;1.57;;
18286;SDS011;9269;50.838;12.094;2022-09-27T00:32:03;1.60;;;1.50;;
18286;SDS011;9269;50.838;12.094;2022-09-27T00:34:34;1.40;;;1.30;;
18286;SDS011;9269;50.838;12.094;2022-09-27T00:37:03;2.03;;;1.87;;
18286;SDS011;9269;50.838;12.094;2022-09-27T00:39:32;3.03;;;1.30;;
18286;SDS011;9269;50.838;12.094;2022-09-27T00:42:02;1.53;;;1.30;;
18286;SDS011;9269;50.838;12.094;2022-09-27T00:47:32;3.43;;;1.80;;
18286;SDS011;9269;50.838;12.094;2022-09-27T00:50:07;1.30;;;1.20;;
18286;SDS011;9269;50.838;12.094;2022-09-27T00:52:42;1.37;;;1.20;;
18286;SDS011;9269;50.838;12.094;2022-09-27T00:55:16;2.23;;;1.40;;
18286;SDS011;9269;50.838;12.094;2022-09-27T00:57:47;1.63;;;1.50;;
18286;SDS011;9269;50.838;12.094;2022-09-27T01:00:17;1.10;;;1.10;;
18286;SDS011;9269;50.838;12.094;2022-09-27T01:03:05;1.23;;;1.20;;
18286;SDS011;9269;50.838;12.094;2022-09-27T01:05:36;1.60;;;1.50;;
18286;SDS011;9269;50.838;12.094;2022-09-27T01:08:06;1.63;;;1.20;;
18286;SDS011;9269;50.838;12.094;2022-09-27T01:10:37;2.13;;;1.50;;
18286;SDS011;9269;50.838;12.094;2022-09-27T01:13:18;1.50;;;1.40;;
18286;SDS011;9269;50.838;12.094;2022-09-27T01:15:52;1.70;;;1.60;;
18286;SDS011;9269;50.838;12.094;2022-09-27T01:18:32;1.90;;;1.50;;
18286;SDS011;9269;50.838;12.094;2022-09-27T01:24:11;2.57;;;1.53;;
18286;SDS011;9269;50.838;12.094;2022-09-27T01:27:09;1.60;;;1.50;;
18286;SDS011;9269;50.838;12.094;2022-09-27T01:30:15;1.67;;;1.53;;
18286;SDS011;9269;50.838;12.094;2022-09-27T01:32:50;1.60;;;1.50;;
18286;SDS011;9269;50.838;12.094;2022-09-27T01:35:28;1.40;;;1.30;;
18286;SDS011;9269;50.838;12.094;2022-09-27T01:38:06;1.40;;;1.30;;
18286;SDS011;9269;50.838;12.094;2022-09-27T01:40:42;1.70;;;1.60;;
18286;SDS011;9269;50.838;12.094;2022-09-27T01:43:20;1.87;;;1.30;;
18286;SDS011;9269;50.838;12.094;2022-09-27T01:45:55;1.23;;;1.13;;
18286;SDS011;9269;50.838;12.094;2022-09-27T01:48:27;1.77;;;1.30;;
18286;SDS011;9269;50.838;12.094;2022-09-27T01:51:03;1.40;;;1.30;;
18286;SDS011;9269;50.838;12.094;2022-09-27T01:53:35;1.70;;;1.60;;
18286;SDS011;9269;50.838;12.094;2022-09-27T01:56:06;1.53;;;1.33;;
18286;SDS011;9269;50.838;12.094;2022-09-27T01:58:41;1.57;;;1.47;;
18286;SDS011;9269;50.838;12.094;2022-09-27T02:01:14;1.30;;;1.20;;
18286;SDS011;9269;50.838;12.094;2022-09-27T02:03:46;1.30;;;1.20;;
18286;SDS011;9269;50.838;12.094;2022-09-27T02:06:18;0.80;;;0.80;;
18286;SDS011;9269;50.838;12.094;2022-09-27T02:08:50;2.00;;;1.07;;
18286;SDS011;9269;50.838;12.094;2022-09-27T02:11:24;1.00;;;0.70;;
18286;SDS011;9269;50.838;12.094;2022-09-27T02:13:56;1.93;;;0.83;;
18286;SDS011;9269;50.838;12.094;2022-09-27T02:16:32;1.00;;;1.00;;
18286;SDS011;9269;50.838;12.094;2022-09-27T02:19:15;0.80;;;0.80;;
18286;SDS011;9269;50.838;12.094;2022-09-27T02:21:52;1.00;;;1.00;;
18286;SDS011;9269;50.838;12.094;2022-09-27T02:24:29;1.17;;;0.80;;
18286;SDS011;9269;50.838;12.094;2022-09-27T02:27:05;1.00;;;0.70;;
18286;SDS011;9269;50.838;12.094;2022-09-27T02:29:39;1.30;;;0.90;;
18286;SDS011;9269;50.838;12.094;2022-09-27T02:32:13;1.43;;;0.83;;
18286;SDS011;9269;50.838;12.094;2022-09-27T02:34:42;1.20;;;1.10;;
18286;SDS011;9269;50.838;12.094;2022-09-27T02:37:11;0.90;;;0.90;;
18286;SDS011;9269;50.838;12.094;2022-09-27T02:39:40;1.00;;;0.90;;
18286;SDS011;9269;50.838;12.094;2022-09-27T02:42:10;0.80;;;0.80;;
18286;SDS011;9269;50.838;12.094;2022-09-27T02:44:39;0.80;;;0.80;;
18286;SDS011;9269;50.838;12.094;2022-09-27T02:47:15;0.90;;;0.90;;
18286;SDS011;9269;50.838;12.094;2022-09-27T02:49:56;1.10;;;0.90;;
18286;SDS011;9269;50.838;12.094;2022-09-27T02:52:37;0.83;;;0.73;;
18286;SDS011;9269;50.838;12.094;2022-09-27T02:55:16;1.13;;;0.90;;
18286;SDS011;9269;50.838;12.094;2022-09-27T02:57:51;0.70;;;0.70;;
18286;SDS011;9269;50.838;12.094;2022-09-27T03:00:31;0.73;;;0.67;;
18286;SDS011;9269;50.838;12.094;2022-09-27T03:03:06;0.63;;;0.63;;
18286;SDS011;9269;50.838;12.094;2022-09-27T03:05:40;0.60;;;0.60;;
18286;SDS011;9269;50.838;12.094;2022-09-27T03:08:11;0.80;;;0.80;;
18286;SDS011;9269;50.838;12.094;2022-09-27T03:10:39;1.13;;;0.80;;
18286;SDS011;9269;50.838;12.094;2022-09-27T03:13:07;0.60;;;0.60;;
18286;SDS011;9269;50.838;12.094;2022-09-27T03:15:36;0.73;;;0.73;;
18286;SDS011;9269;50.838;12.094;2022-09-27T03:18:06;0.70;;;0.70;;
18286;SDS011;9269;50.838;12.094;2022-09-27T03:20:35;1.13;;;0.80;;
18286;SDS011;9269;50.838;12.094;2022-09-27T03:23:03;1.00;;;1.00;;
18286;SDS011;9269;50.838;12.094;2022-09-27T03:25:31;1.10;;;1.00;;
18286;SDS011;9269;50.838;12.094;2022-09-27T03:28:00;1.30;;;1.20;;
18286;SDS011;9269;50.838;12.094;2022-09-27T03:30:29;2.07;;;1.97;;
18286;SDS011;9269;50.838;12.094;2022-09-27T03:32:58;1.60;;;1.43;;
18286;SDS011;9269;50.838;12.094;2022-09-27T03:35:28;2.27;;;1.70;;
18286;SDS011;9269;50.838;12.094;2022-09-27T03:37:57;2.40;;;2.20;;
18286;SDS011;9269;50.838;12.094;2022-09-27T03:40:25;2.60;;;2.20;;
18286;SDS011;9269;50.838;12.094;2022-09-27T03:42:54;2.63;;;2.37;;
18286;SDS011;9269;50.838;12.094;2022-09-27T03:45:22;3.07;;;2.43;;
18286;SDS011;9269;50.838;12.094;2022-09-27T03:47:51;3.00;;;2.73;;
18286;SDS011;9269;50.838;12.094;2022-09-27T03:50:19;2.93;;;2.60;;
18286;SDS011;9269;50.838;12.094;2022-09-27T03:52:50;2.70;;;2.50;;
18286;SDS011;9269;50.838;12.094;2022-09-27T03:55:20;3.20;;;2.73;;
18286;SDS011;9269;50.838;12.094;2022-09-27T03:57:48;3.10;;;2.30;;
18286;SDS011;9269;50.838;12.094;2022-09-27T04:00:16;2.77;;;2.50;;
18286;SDS011;9269;50.838;12.094;2022-09-27T04:02:46;3.70;;;3.07;;
18286;SDS011;9269;50.838;12.094;2022-09-27T04:05:14;2.67;;;2.47;;
18286;SDS011;9269;50.838;12.094;2022-09-27T04:07:44;2.57;;;1.93;;
18286;SDS011;9269;50.838;12.094;2022-09-27T04:10:18;2.40;;;2.03;;
18286;SDS011;9269;50.838;12.094;2022-09-27T04:12:47;1.87;;;1.67;;
18286;SDS011;9269;50.838;12.094;2022-09-27T04:15:15;1.63;;;1.30;;
18286;SDS011;9269;50.838;12.094;2022-09-27T04:17:44;1.50;;;1.40;;
18286;SDS011;9269;50.838;12.094;2022-09-27T04:20:13;1.07;;;0.97;;
18286;SDS011;9269;50.838;12.094;2022-09-27T04:22:41;1.37;;;1.17;;
18286;SDS011;9269;50.838;12.094;2022-09-27T04:25:11;0.80;;;0.80;;
18286;SDS011;9269;50.838;12.094;2022-09-27T04:27:44;1.43;;;0.90;;
18286;SDS011;9269;50.838;12.094;2022-09-27T04:30:13;1.10;;;0.90;;
18286;SDS011;9269;50.838;12.094;2022-09-27T04:32:42;2.37;;;1.13;;
18286;SDS011;9269;50.838;12.094;2022-09-27T04:35:12;0.67;;;0.67;;
18286;SDS011;9269;50.838;12.094;2022-09-27T04:37:58;0.83;;;0.80;;
18286;SDS011;9269;50.838;12.094;2022-09-27T04:40:26;0.80;;;0.80;;
18286;SDS011;9269;50.838;12.094;2022-09-27T04:42:56;0.83;;;0.80;;
18286;SDS011;9269;50.838;12.094;2022-09-27T04:45:25;1.00;;;0.90;;
18286;SDS011;9269;50.838;12.094;2022-09-27T04:47:54;2.07;;;1.17;;
18286;SDS011;9269;50.838;12.094;2022-09-27T04:50:22;1.03;;;0.93;;
18286;SDS011;9269;50.838;12.094;2022-09-27T04:52:51;1.13;;;1.03;;
18286;SDS011;9269;50.838;12.094;2022-09-27T04:55:21;1.50;;;0.87;;
18286;SDS011;9269;50.838;12.094;2022-09-27T04:57:49;1.17;;;0.80;;
18286;SDS011;9269;50.838;12.094;2022-09-27T05:00:19;1.47;;;0.83;;
18286;SDS011;9269;50.838;12.094;2022-09-27T05:02:48;0.93;;;0.93;;
18286;SDS011;9269;50.838;12.094;2022-09-27T05:05:16;2.63;;;0.83;;
18286;SDS011;9269;50.838;12.094;2022-09-27T05:07:45;2.30;;;0.63;;
18286;SDS011;9269;50.838;12.094;2022-09-27T05:10:13;0.80;;;0.80;;
18286;SDS011;9269;50.838;12.094;2022-09-27T05:12:42;0.73;;;0.73;;
18286;SDS011;9269;50.838;12.094;2022-09-27T05:15:11;0.90;;;0.80;;
18286;SDS011;9269;50.838;12.094;2022-09-27T05:17:41;1.00;;;0.90;;
18286;SDS011;9269;50.838;12.094;2022-09-27T05:20:09;1.10;;;1.00;;
18286;SDS011;9269;50.838;12.094;2022-09-27T05:22:38;1.97;;;1.13;;
18286;SDS011;9269;50.838;12.094;2022-09-27T05:25:07;1.10;;;1.00;;
18286;SDS011;9269;50.838;12.094;2022-09-27T05:27:36;1.47;;;1.17;;
18286;SDS011;9269;50.838;12.094;2022-09-27T05:30:04;1.17;;;1.10;;
18286;SDS011;9269;50.838;12.094;2022-09-27T05:32:34;1.43;;;1.17;;
18286;SDS011;9269;50.838;12.094;2022-09-27T05:35:04;2.40;;;1.40;;
18286;SDS011;9269;50.838;12.094;2022-09-27T05:37:33;1.10;;;1.00;;
18286;SDS011;9269;50.838;12.094;2022-09-27T05:40:02;1.53;;;1.00;;
18286;SDS011;9269;50.838;12.094;2022-09-27T05:42:50;0.80;;;0.80;;
18286;SDS011;9269;50.838;12.094;2022-09-27T05:45:19;0.80;;;0.77;;
18286;SDS011;9269;50.838;12.094;2022-09-27T05:47:52;0.93;;;0.60;;
18286;SDS011;9269;50.838;12.094;2022-09-27T05:50:23;0.60;;;0.60;;
18286;SDS011;9269;50.838;12.094;2022-09-27T05:52:52;0.47;;;0.47;;
18286;SDS011;9269;50.838;12.094;2022-09-27T05:55:21;0.93;;;0.90;;
18286;SDS011;9269;50.838;12.094;2022-09-27T05:57:53;0.70;;;0.70;;
18286;SDS011;9269;50.838;12.094;2022-09-27T06:00:23;0.70;;;0.70;;
18286;SDS011;9269;50.838;12.094;2022-09-27T06:02:52;1.70;;;0.90;;
18286;SDS011;9269;50.838;12.094;2022-09-27T06:05:25;0.73;;;0.70;;
18286;SDS011;9269;50.838;12.094;2022-09-27T06:07:57;1.90;;;1.00;;
18286;SDS011;9269;50.838;12.094;2022-09-27T06:10:27;0.70;;;0.70;;
18286;SDS011;9269;50.838;12.094;2022-09-27T06:12:59;1.00;;;0.90;;
18286;SDS011;9269;50.838;12.094;2022-09-27T06:15:29;0.97;;;0.77;;
18286;SDS011;9269;50.838;12.094;2022-09-27T06:18:01;1.20;;;0.87;;
18286;SDS011;9269;50.838;12.094;2022-09-27T06:20:32;2.20;;;1.10;;
18286;SDS011;9269;50.838;12.094;2022-09-27T06:23:04;1.17;;;0.80;;
18286;SDS011;9269;50.838;12.094;2022-09-27T06:25:34;1.20;;;1.10;;
18286;SDS011;9269;50.838;12.094;2022-09-27T06:28:03;1.20;;;1.10;;
18286;SDS011;9269;50.838;12.094;2022-09-27T06:30:31;1.53;;;1.27;;
18286;SDS011;9269;50.838;12.094;2022-09-27T06:33:01;1.17;;;0.67;;
18286;SDS011;9269;50.838;12.094;2022-09-27T06:35:29;2.53;;;0.83;;
18286;SDS011;9269;50.838;12.094;2022-09-27T06:38:01;1.17;;;0.90;;
18286;SDS011;9269;50.838;12.094;2022-09-27T06:40:30;1.70;;;0.80;;
18286;SDS011;9269;50.838;12.094;2022-09-27T06:43:02;0.80;;;0.80;;
18286;SDS011;9269;50.838;12.094;2022-09-27T06:45:31;1.43;;;1.10;;
18286;SDS011;9269;50.838;12.094;2022-09-27T06:48:01;2.40;;;1.27;;
18286;SDS011;9269;50.838;12.094;2022-09-27T06:50:30;1.73;;;1.33;;
18286;SDS011;9269;50.838;12.094;2022-09-27T06:53:01;1.27;;;0.87;;
18286;SDS011;9269;50.838;12.094;2022-09-27T06:55:31;3.23;;;1.53;;
18286;SDS011;9269;50.838;12.094;2022-09-27T06:57:59;1.10;;;1.10;;
18286;SDS011;9269;50.838;12.094;2022-09-27T07:00:47;2.37;;;1.27;;
18286;SDS011;9269;50.838;12.094;2022-09-27T07:03:16;2.27;;;1.40;;
18286;SDS011;9269;50.838;12.094;2022-09-27T07:05:52;1.57;;;1.43;;
18286;SDS011;9269;50.838;12.094;2022-09-27T07:08:23;1.60;;;1.50;;
18286;SDS011;9269;50.838;12.094;2022-09-27T07:10:54;1.37;;;1.27;;
18286;SDS011;9269;50.838;12.094;2022-09-27T07:13:28;1.30;;;1.20;;
18286;SDS011;9269;50.838;12.094;2022-09-27T07:16:00;1.30;;;1.10;;
18286;SDS011;9269;50.838;12.094;2022-09-27T07:18:28;1.10;;;0.97;;
18286;SDS011;9269;50.838;12.094;2022-09-27T07:20:58;1.03;;;0.73;;
18286;SDS011;9269;50.838;12.094;2022-09-27T07:23:28;1.60;;;0.73;;
18286;SDS011;9269;50.838;12.094;2022-09-27T07:25:59;1.20;;;0.67;;
18286;SDS011;9269;50.838;12.094;2022-09-27T07:28:28;1.70;;;1.60;;
18286;SDS011;9269;50.838;12.094;2022-09-27T07:30:57;2.10;;;1.90;;
18286;SDS011;9269;50.838;12.094;2022-09-27T07:33:25;1.77;;;1.60;;
18286;SDS011;9269;50.838;12.094;2022-09-27T07:35:55;1.30;;;1.20;;
18286;SDS011;9269;50.838;12.094;2022-09-27T07:38:25;1.67;;;0.80;;
18286;SDS011;9269;50.838;12.094;2022-09-27T07:40:54;1.13;;;0.93;;
18286;SDS011;9269;50.838;12.094;2022-09-27T07:43:23;0.77;;;0.77;;
18286;SDS011;9269;50.838;12.094;2022-09-27T07:45:51;0.70;;;0.70;;
18286;SDS011;9269;50.838;12.094;2022-09-27T07:48:23;1.20;;;0.80;;
18286;SDS011;9269;50.838;12.094;2022-09-27T07:50:51;0.90;;;0.67;;
18286;SDS011;9269;50.838;12.094;2022-09-27T07:53:20;1.00;;;0.80;;
18286;SDS011;9269;50.838;12.094;2022-09-27T07:55:50;0.40;;;0.40;;
18286;SDS011;9269;50.838;12.094;2022-09-27T07:58:24;0.83;;;0.73;;
18286;SDS011;9269;50.838;12.094;2022-09-27T08:00:53;1.97;;;0.80;;
18286;SDS011;9269;50.838;12.094;2022-09-27T08:03:22;2.47;;;0.80;;
18286;SDS011;9269;50.838;12.094;2022-09-27T08:05:51;0.87;;;0.87;;
18286;SDS011;9269;50.838;12.094;2022-09-27T08:08:19;0.57;;;0.57;;
18286;SDS011;9269;50.838;12.094;2022-09-27T08:10:47;0.40;;;0.40;;
18286;SDS011;9269;50.838;12.094;2022-09-27T08:13:16;0.53;;;0.53;;
18286;SDS011;9269;50.838;12.094;2022-09-27T08:15:47;0.60;;;0.60;;
18286;SDS011;9269;50.838;12.094;2022-09-27T08:18:18;0.87;;;0.60;;
18286;SDS011;9269;50.838;12.094;2022-09-27T08:20:47;0.53;;;0.50;;
18286;SDS011;9269;50.838;12.094;2022-09-27T08:23:16;0.93;;;0.60;;
18286;SDS011;9269;50.838;12.094;2022-09-27T08:25:50;0.60;;;0.60;;
18286;SDS011;9269;50.838;12.094;2022-09-27T08:28:19;0.40;;;0.40;;
18286;SDS011;9269;50.838;12.094;2022-09-27T08:30:49;0.50;;;0.33;;
18286;SDS011;9269;50.838;12.094;2022-09-27T08:33:18;0.53;;;0.53;;
18286;SDS011;9269;50.838;12.094;2022-09-27T08:35:47;0.50;;;0.50;;
18286;SDS011;9269;50.838;12.094;2022-09-27T08:38:16;0.40;;;0.40;;
18286;SDS011;9269;50.838;12.094;2022-09-27T08:40:52;0.97;;;0.37;;
18286;SDS011;9269;50.838;12.094;2022-09-27T08:43:26;0.70;;;0.30;;
18286;SDS011;9269;50.838;12.094;2022-09-27T08:46:06;0.77;;;0.37;;
18286;SDS011;9269;50.838;12.094;2022-09-27T08:48:42;0.37;;;0.37;;
18286;SDS011;9269;50.838;12.094;2022-09-27T08:51:16;1.03;;;0.30;;
18286;SDS011;9269;50.838;12.094;2022-09-27T08:53:49;0.53;;;0.33;;
18286;SDS011;9269;50.838;12.094;2022-09-27T08:56:21;1.40;;;0.97;;
18286;SDS011;9269;50.838;12.094;2022-09-27T08:58:50;1.57;;;0.90;;
18286;SDS011;9269;50.838;12.094;2022-09-27T09:01:26;1.70;;;1.40;;
18286;SDS011;9269;50.838;12.094;2022-09-27T09:03:56;1.70;;;1.47;;
18286;SDS011;9269;50.838;12.094;2022-09-27T09:06:26;2.10;;;1.43;;
18286;SDS011;9269;50.838;12.094;2022-09-27T09:09:01;2.30;;;1.50;;
18286;SDS011;9269;50.838;12.094;2022-09-27T09:11:41;1.70;;;1.30;;
18286;SDS011;9269;50.838;12.094;2022-09-27T09:14:53;2.73;;;1.80;;
18286;SDS011;9269;50.838;12.094;2022-09-27T09:17:43;2.47;;;1.50;;
18286;SDS011;9269;50.838;12.094;2022-09-27T09:20:37;2.57;;;1.50;;
18286;SDS011;9269;50.838;12.094;2022-09-27T09:23:21;2.37;;;1.20;;
18286;SDS011;9269;50.838;12.094;2022-09-27T09:26:00;1.10;;;1.00;;
18286;SDS011;9269;50.838;12.094;2022-09-27T09:28:39;2.80;;;1.30;;
18286;SDS011;9269;50.838;12.094;2022-09-27T09:31:20;2.77;;;1.17;;
18286;SDS011;9269;50.838;12.094;2022-09-27T09:34:00;1.40;;;0.87;;
18286;SDS011;9269;50.838;12.094;2022-09-27T09:36:35;0.73;;;0.73;;
18286;SDS011;9269;50.838;12.094;2022-09-27T09:39:10;1.77;;;0.60;;
18286;SDS011;9269;50.838;12.094;2022-09-27T09:41:54;1.40;;;0.97;;
18286;SDS011;9269;50.838;12.094;2022-09-27T09:44:33;1.60;;;1.20;;
18286;SDS011;9269;50.838;12.094;2022-09-27T09:47:20;3.43;;;1.40;;
18286;SDS011;9269;50.838;12.094;2022-09-27T09:49:57;1.00;;;1.00;;
18286;SDS011;9269;50.838;12.094;2022-09-27T09:52:32;1.73;;;0.90;;
18286;SDS011;9269;50.838;12.094;2022-09-27T09:55:11;0.87;;;0.70;;
18286;SDS011;9269;50.838;12.094;2022-09-27T09:57:49;0.60;;;0.60;;
18286;SDS011;9269;50.838;12.094;2022-09-27T10:00:24;1.27;;;0.77;;
18286;SDS011;9269;50.838;12.094;2022-09-27T10:02:53;0.67;;;0.67;;
18286;SDS011;9269;50.838;12.094;2022-09-27T10:05:26;0.93;;;0.90;;
18286;SDS011;9269;50.838;12.094;2022-09-27T10:07:56;0.60;;;0.60;;
18286;SDS011;9269;50.838;12.094;2022-09-27T10:10:27;1.43;;;0.90;;
18286;SDS011;9269;50.838;12.094;2022-09-27T10:12:56;1.37;;;0.97;;
18286;SDS011;9269;50.838;12.094;2022-09-27T10:15:24;1.63;;;1.40;;
18286;SDS011;9269;50.838;12.094;2022-09-27T10:17:56;1.77;;;1.37;;
18286;SDS011;9269;50.838;12.094;2022-09-27T10:20:32;2.00;;;1.67;;
18286;SDS011;9269;50.838;12.094;2022-09-27T10:23:05;1.70;;;1.43;;
18286;SDS011;9269;50.838;12.094;2022-09-27T10:25:46;0.90;;;0.90;;
18286;SDS011;9269;50.838;12.094;2022-09-27T10:28:28;2.63;;;1.17;;
18286;SDS011;9269;50.838;12.094;2022-09-27T10:31:00;3.43;;;1.27;;
18286;SDS011;9269;50.838;12.094;2022-09-27T10:33:32;1.53;;;1.33;;
18286;SDS011;9269;50.838;12.094;2022-09-27T10:36:03;1.57;;;1.23;;
18286;SDS011;9269;50.838;12.094;2022-09-27T10:38:50;1.60;;;1.27;;
18286;SDS011;9269;50.838;12.094;2022-09-27T10:41:24;1.50;;;1.20;;
18286;SDS011;9269;50.838;12.094;2022-09-27T10:44:02;1.63;;;1.10;;
18286;SDS011;9269;50.838;12.094;2022-09-27T10:46:47;1.40;;;1.30;;
18286;SDS011;9269;50.838;12.094;2022-09-27T10:49:17;1.93;;;1.20;;
18286;SDS011;9269;50.838;12.094;2022-09-27T10:51:50;2.33;;;1.43;;
18286;SDS011;9269;50.838;12.094;2022-09-27T10:54:22;4.03;;;2.03;;
18286;SDS011;9269;50.838;12.094;2022-09-27T10:56:55;4.73;;;3.50;;
18286;SDS011;9269;50.838;12.094;2022-09-27T10:59:26;4.50;;;3.37;;
18286;SDS011;9269;50.838;12.094;2022-09-27T11:01:57;3.87;;;2.93;;
18286;SDS011;9269;50.838;12.094;2022-09-27T11:04:27;3.97;;;2.47;;
18286;SDS011;9269;50.838;12.094;2022-09-27T11:07:06;2.77;;;2.10;;
18286;SDS011;9269;50.838;12.094;2022-09-27T11:09:44;2.00;;;1.80;;
18286;SDS011;9269;50.838;12.094;2022-09-27T11:12:18;2.00;;;1.80;;
18286;SDS011;9269;50.838;12.094;2022-09-27T11:14:51;2.10;;;1.87;;
18286;SDS011;9269;50.838;12.094;2022-09-27T11:17:26;2.80;;;2.10;;
18286;SDS011;9269;50.838;12.094;2022-09-27T11:20:04;2.13;;;1.83;;
18286;SDS011;9269;50.838;12.094;2022-09-27T11:22:51;2.17;;;1.97;;
18286;SDS011;9269;50.838;12.094;2022-09-27T11:25:37;1.90;;;1.80;;
18286;SDS011;9269;50.838;12.094;2022-09-27T11:28:15;2.13;;;1.70;;
18286;SDS011;9269;50.838;12.094;2022-09-27T11:30:56;3.10;;;1.70;;
18286;SDS011;9269;50.838;12.094;2022-09-27T11:33:35;4.87;;;4.40;;
18286;SDS011;9269;50.838;12.094;2022-09-27T11:36:15;3.13;;;2.73;;
18286;SDS011;9269;50.838;12.094;2022-09-27T11:38:55;4.37;;;3.20;;
18286;SDS011;9269;50.838;12.094;2022-09-27T11:41:34;2.80;;;2.20;;
18286;SDS011;9269;50.838;12.094;2022-09-27T11:47:12;1.97;;;1.80;;
18286;SDS011;9269;50.838;12.094;2022-09-27T11:49:54;2.90;;;1.50;;
18286;SDS011;9269;50.838;12.094;2022-09-27T11:52:53;1.73;;;1.63;;
18286;SDS011;9269;50.838;12.094;2022-09-27T11:55:36;1.47;;;1.37;;
18286;SDS011;9269;50.838;12.094;2022-09-27T11:58:15;1.97;;;1.20;;
18286;SDS011;9269;50.838;12.094;2022-09-27T12:00:54;1.40;;;1.30;;
18286;SDS011;9269;50.838;12.094;2022-09-27T12:03:44;1.27;;;1.17;;
18286;SDS011;9269;50.838;12.094;2022-09-27T12:06:44;2.03;;;1.40;;
18286;SDS011;9269;50.838;12.094;2022-09-27T12:09:21;2.07;;;1.33;;
18286;SDS011;9269;50.838;12.094;2022-09-27T12:11:57;2.63;;;1.30;;
18286;SDS011;9269;50.838;12.094;2022-09-27T12:14:32;1.53;;;1.43;;
18286;SDS011;9269;50.838;12.094;2022-09-27T12:17:14;2.50;;;1.30;;
18286;SDS011;9269;50.838;12.094;2022-09-27T12:19:46;2.07;;;1.30;;
18286;SDS011;9269;50.838;12.094;2022-09-27T12:22:20;1.40;;;1.30;;
18286;SDS011;9269;50.838;12.094;2022-09-27T12:25:13;1.50;;;1.10;;
18286;SDS011;9269;50.838;12.094;2022-09-27T12:27:48;1.77;;;1.30;;
18286;SDS011;9269;50.838;12.094;2022-09-27T12:30:21;1.50;;;1.40;;
18286;SDS011;9269;50.838;12.094;2022-09-27T12:32:52;1.50;;;1.40;;
18286;SDS011;9269;50.838;12.094;2022-09-27T12:35:31;2.33;;;1.90;;
18286;SDS011;9269;50.838;12.094;2022-09-27T12:38:03;1.97;;;1.50;;
18286;SDS011;9269;50.838;12.094;2022-09-27T12:40:37;1.40;;;1.27;;
18286;SDS011;9269;50.838;12.094;2022-09-27T12:43:13;2.00;;;1.57;;
18286;SDS011;9269;50.838;12.094;2022-09-27T12:45:47;2.10;;;1.83;;
18286;SDS011;9269;50.838;12.094;2022-09-27T12:48:27;1.37;;;1.27;;
18286;SDS011;9269;50.838;12.094;2022-09-27T12:51:05;2.07;;;1.40;;
18286;SDS011;9269;50.838;12.094;2022-09-27T12:53:40;1.60;;;1.50;;
18286;SDS011;9269;50.838;12.094;2022-09-27T12:56:26;2.10;;;1.53;;
18286;SDS011;9269;50.838;12.094;2022-09-27T12:59:09;1.67;;;1.30;;
18286;SDS011;9269;50.838;12.094;2022-09-27T13:01:55;1.70;;;1.30;;
18286;SDS011;9269;50.838;12.094;2022-09-27T13:04:52;1.17;;;1.17;;
18286;SDS011;9269;50.838;12.094;2022-09-27T13:07:35;1.57;;;1.47;;
18286;SDS011;9269;50.838;12.094;2022-09-27T13:10:28;2.63;;;1.43;;
18286;SDS011;9269;50.838;12.094;2022-09-27T13:13:13;1.40;;;1.30;;
18286;SDS011;9269;50.838;12.094;2022-09-27T13:15:48;1.67;;;1.57;;
18286;SDS011;9269;50.838;12.094;2022-09-27T13:18:27;2.57;;;1.43;;
18286;SDS011;9269;50.838;12.094;2022-09-27T13:20:58;1.43;;;1.33;;
18286;SDS011;9269;50.838;12.094;2022-09-27T13:26:20;1.80;;;1.40;;
18286;SDS011;9269;50.838;12.094;2022-09-27T13:29:19;2.10;;;1.63;;
18286;SDS011;9269;50.838;12.094;2022-09-27T13:32:10;1.30;;;1.30;;
18286;SDS011;9269;50.838;12.094;2022-09-27T13:34:43;1.53;;;1.37;;
18286;SDS011;9269;50.838;12.094;2022-09-27T13:40:10;1.30;;;1.20;;
18286;SDS011;9269;50.838;12.094;2022-09-27T13:45:48;1.33;;;1.23;;
18286;SDS011;9269;50.838;12.094;2022-09-27T13:48:23;2.07;;;1.27;;
18286;SDS011;9269;50.838;12.094;2022-09-27T13:50:58;1.30;;;0.97;;
18286;SDS011;9269;50.838;12.094;2022-09-27T13:53:31;2.37;;;1.30;;
18286;SDS011;9269;50.838;12.094;2022-09-27T13:56:02;1.53;;;1.20;;
18286;SDS011;9269;50.838;12.094;2022-09-27T14:01:25;1.10;;;1.10;;
18286;SDS011;9269;50.838;12.094;2022-09-27T14:03:59;1.23;;;1.13;;
18286;SDS011;9269;50.838;12.094;2022-09-27T14:06:32;3.53;;;1.80;;
18286;SDS011;9269;50.838;12.094;2022-09-27T14:09:04;2.07;;;1.70;;
18286;SDS011;9269;50.838;12.094;2022-09-27T14:11:35;3.50;;;2.70;;
18286;SDS011;9269;50.838;12.094;2022-09-27T14:14:06;4.37;;;3.50;;
18286;SDS011;9269;50.838;12.094;2022-09-27T14:16:43;4.50;;;2.80;;
18286;SDS011;9269;50.838;12.094;2022-09-27T14:19:15;3.90;;;2.80;;
18286;SDS011;9269;50.838;12.094;2022-09-27T14:21:46;3.17;;;2.70;;
18286;SDS011;9269;50.838;12.094;2022-09-27T14:24:19;4.60;;;2.33;;
18286;SDS011;9269;50.838;12.094;2022-09-27T14:26:51;4.10;;;3.07;;
18286;SDS011;9269;50.838;12.094;2022-09-27T14:29:33;3.67;;;2.80;;
18286;SDS011;9269;50.838;12.094;2022-09-27T14:32:08;3.93;;;2.50;;
18286;SDS011;9269;50.838;12.094;2022-09-27T14:34:40;3.37;;;2.73;;
18286;SDS011;9269;50.838;12.094;2022-09-27T14:37:18;3.90;;;3.10;;
18286;SDS011;9269;50.838;12.094;2022-09-27T14:39:54;3.40;;;2.20;;
18286;SDS011;9269;50.838;12.094;2022-09-27T14:42:26;2.70;;;2.50;;
18286;SDS011;9269;50.838;12.094;2022-09-27T14:44:59;2.63;;;2.43;;
18286;SDS011;9269;50.838;12.094;2022-09-27T14:47:43;2.53;;;1.83;;
18286;SDS011;9269;50.838;12.094;2022-09-27T14:50:18;3.80;;;1.90;;
18286;SDS011;9269;50.838;12.094;2022-09-27T14:52:49;1.50;;;1.40;;
18286;SDS011;9269;50.838;12.094;2022-09-27T14:55:22;2.50;;;1.60;;
18286;SDS011;9269;50.838;12.094;2022-09-27T14:57:53;2.67;;;2.40;;
18286;SDS011;9269;50.838;12.094;2022-09-27T15:00:25;3.53;;;1.83;;
18286;SDS011;9269;50.838;12.094;2022-09-27T15:02:59;2.57;;;1.90;;
18286;SDS011;9269;50.838;12.094;2022-09-27T15:05:32;4.27;;;2.50;;
18286;SDS011;9269;50.838;12.094;2022-09-27T15:08:02;3.03;;;2.70;;
18286;SDS011;9269;50.838;12.094;2022-09-27T15:10:33;4.83;;;4.17;;
18286;SDS011;9269;50.838;12.094;2022-09-27T15:13:03;7.13;;;5.67;;
18286;SDS011;9269;50.838;12.094;2022-09-27T15:15:33;6.07;;;4.73;;
18286;SDS011;9269;50.838;12.094;2022-09-27T15:21:01;11.80;;;8.83;;
18286;SDS011;9269;50.838;12.094;2022-09-27T15:23:33;10.20;;;7.27;;
18286;SDS011;9269;50.838;12.094;2022-09-27T15:26:04;4.80;;;4.30;;
18286;SDS011;9269;50.838;12.094;2022-09-27T15:28:40;4.90;;;4.07;;
18286;SDS011;9269;50.838;12.094;2022-09-27T15:31:10;3.07;;;2.77;;
18286;SDS011;9269;50.838;12.094;2022-09-27T15:33:40;3.07;;;2.77;;
18286;SDS011;9269;50.838;12.094;2022-09-27T15:36:10;3.17;;;2.40;;
18286;SDS011;9269;50.838;12.094;2022-09-27T15:38:42;3.97;;;2.37;;
18286;SDS011;9269;50.838;12.094;2022-09-27T15:41:16;7.73;;;2.40;;
18286;SDS011;9269;50.838;12.094;2022-09-27T15:43:46;5.90;;;2.87;;
18286;SDS011;9269;50.838;12.094;2022-09-27T15:46:32;10.67;;;3.10;;
18286;SDS011;9269;50.838;12.094;2022-09-27T15:51:57;4.93;;;2.90;;
18286;SDS011;9269;50.838;12.094;2022-09-27T15:54:27;2.83;;;1.77;;